FLIGHT INFORMATION
United Airlines

UAL1128

At Arrival Gate

KORD
 KIAH
DATE: 2020-01-02
GATE:  -
GATE DEPARTURE: 20:33
TAKEOFF: 20:48
DATE: 2020-01-02
GATE: E22
LANDING: 23:26
GATE ARRIVAL: 23:34
FLIGHT DATA
Crew: PETE LOCASCIO
Speed: 483 kts Altitude: 36000 ft
Stage Length: 805 nm
Route: 
Block Time: 3 Flight Time: 2.6
Fuel Used: 16808 LB
TRACK DATA
50000 FT1000 KTAltitudeSpeed
AIRCRAFT INFORMATION
Aircraft Type: B739ERSSW
Registration: N78448
SELCAL:  MSN/LN: 40003 / 3942
Operator: UNITED AIRLINES
Flights: 10 Block Time: 24 Flight Time: 20.6
Fuel Used: 135969 LB
  • DEPARTURE INFORMATION
    Date: 2020-01-02
    Airport: KORD
    Gate:  -
    Gate Departure: 20:33
    Takeoff: 20:48
    ARRIVAL INFORMATION
    Date: 2020-01-02
    Airport: KIAH
    Gate: E22
    Landing: 23:26
    Gate Arrival: 23:34
  • FLIGHT DATA
    Crew: PETE LOCASCIO
    Speed: 483 kts Altitude: 36000 ft
    Stage Length: 435 nm
    Route: 
    Block Time: 3 Flight Time: 2.6
    Fuel Used: 16808 LB
  • AIRCRAFT INFORMATION
    Aircraft Type: B739ERSSW
    Registration: N78448
    SELCAL:  MSN/LN: 40003 / 3942
    Operator: United Airlines
    Flights: 10 Block Time: 24 Flight Time: 20.6
    Fuel Used: 135969 LB

DATALINK LOG | Newest first | Current as of: 2020-05-25 10:01:10
LABEL ID SEQUENCE CONTENT Dn/Up
QD355923:34 9.9▼ Dn
QC261623:26▼ Dn
2U0039KIAH 022239Z 13006KT 6SM -RA BR FEW010 SCT065 OVC090 18/16 A2962 RMK AO2 VIS N-NE 3 P0003 T01780161▲ Up
2S0039KIAH▼ Dn
GA5841GATE E22▲ Up
GR5930KIAH --:-- DIPL/VIP NO▼ Dn
2U2522KIAH 022053Z 00000KT 2SM BR FEW005 OVC014 18/17 A2962 RMK AO2 SFC VIS 2 1/2 SLP029 60004 T01830167 56026▲ Up
2S2522KIAH▼ Dn
QB493420:48▼ Dn
QA345620:33 26.8▼ Dn
A32113CLEARED TO KIAH VIA BACEN BLOKR BEKKI FAM J137 LIT J180 SWB ZEEKK2. SQUAWK 7123.▲ Up
A32019CLEARED TO KIAH VIA BACEN BLOKR BEKKI FAM J137 LIT J180 SWB ZEEKK2. SQUAWK 5370.▲ Up
Q01907[LINK ACK]▲ Up
Q01936[LINK TEST]▼ Dn


AIRCRAFT HISTORY
FLIGHT DATE FLIGHT NUMBER ORIGIN DESTINATION ROUTE BLOCK TIME FLIGHT TIME FUEL USED (LB) PILOT
2020-02-17UAL519KPHX KLAX 1.20.97054Steven Perry
2020-01-23UAL5816CYYC KPHX 2.72.515272Pete Locascio
2020-01-19UAL6126KRNO CYYC 2.4213185Pete Locascio
2020-01-09UAL6520CYEG KRNO 2.52.214248Pete Locascio
2020-01-07UAL5829KIDA CYEG 2.21.711129Pete Locascio
2020-01-04UAL6123KIAH KIDA 3.5320126Pete Locascio
2020-01-02UAL1128KORD KIAH 32.616808Pete Locascio
2020-01-01UAL228KIAH KORD 2.41.912961Michael Roth
2019-12-14UAL519KDEN KIAH 1.91.712035Steven Perry
2019-12-11UAL1629KSFO KDEN 2.3213151Pete Locascio